sensor_id;sensor_type;location;lat;lon;timestamp;pressure;altitude;pressure_sealevel;temperature;humidity
30302;BME280;17111;52.130;5.028;2023-09-12T00:01:35;101410.00;;;28.13;49.26
30302;BME280;17111;52.130;5.028;2023-09-12T00:04:01;101407.47;;;28.11;49.78
30302;BME280;17111;52.130;5.028;2023-09-12T00:06:28;101404.94;;;28.10;49.12
30302;BME280;17111;52.130;5.028;2023-09-12T00:08:55;101395.09;;;28.09;49.85
30302;BME280;17111;52.130;5.028;2023-09-12T00:11:21;101398.22;;;28.05;50.05
30302;BME280;17111;52.130;5.028;2023-09-12T00:13:53;101398.22;;;28.05;50.00
30302;BME280;17111;52.130;5.028;2023-09-12T00:16:19;101394.88;;;28.03;49.50
30302;BME280;17111;52.130;5.028;2023-09-12T00:18:46;101397.81;;;28.02;49.64
30302;BME280;17111;52.130;5.028;2023-09-12T00:21:13;101396.13;;;28.01;49.22
30302;BME280;17111;52.130;5.028;2023-09-12T00:23:39;101395.28;;;28.00;49.28
30302;BME280;17111;52.130;5.028;2023-09-12T00:26:06;101391.94;;;27.98;50.09
30302;BME280;17111;52.130;5.028;2023-09-12T00:28:32;101390.25;;;27.97;49.90
30302;BME280;17111;52.130;5.028;2023-09-12T00:31:00;101380.41;;;27.96;50.05
30302;BME280;17111;52.130;5.028;2023-09-12T00:33:27;101375.19;;;27.95;49.56
30302;BME280;17111;52.130;5.028;2023-09-12T00:35:54;101381.66;;;27.94;49.73
30302;BME280;17111;52.130;5.028;2023-09-12T00:38:21;101381.88;;;27.92;49.80
30302;BME280;17111;52.130;5.028;2023-09-12T00:40:47;101380.19;;;27.91;49.46
30302;BME280;17111;52.130;5.028;2023-09-12T00:43:15;101385.84;;;27.90;49.87
30302;BME280;17111;52.130;5.028;2023-09-12T00:45:42;101387.72;;;27.89;49.73
30302;BME280;17111;52.130;5.028;2023-09-12T00:48:09;101369.69;;;27.88;49.64
30302;BME280;17111;52.130;5.028;2023-09-12T00:50:36;101385.44;;;27.86;50.33
30302;BME280;17111;52.130;5.028;2023-09-12T00:53:04;101381.84;;;27.86;50.28
30302;BME280;17111;52.130;5.028;2023-09-12T00:55:32;101386.44;;;27.85;49.90
30302;BME280;17111;52.130;5.028;2023-09-12T00:57:59;101372.22;;;27.83;49.71
30302;BME280;17111;52.130;5.028;2023-09-12T01:00:27;101379.56;;;27.83;49.32
30302;BME280;17111;52.130;5.028;2023-09-12T01:02:54;101374.28;;;27.81;49.96
30302;BME280;17111;52.130;5.028;2023-09-12T01:05:22;101378.06;;;27.80;49.74
30302;BME280;17111;52.130;5.028;2023-09-12T01:07:48;101383.72;;;27.78;50.33
30302;BME280;17111;52.130;5.028;2023-09-12T01:10:15;101377.44;;;27.78;50.27
30302;BME280;17111;52.130;5.028;2023-09-12T01:12:42;101383.09;;;27.76;49.97
30302;BME280;17111;52.130;5.028;2023-09-12T01:15:09;101378.69;;;27.75;50.36
30302;BME280;17111;52.130;5.028;2023-09-12T01:17:42;101375.31;;;27.73;49.79
30302;BME280;17111;52.130;5.028;2023-09-12T01:20:14;101373.63;;;27.72;50.37
30302;BME280;17111;52.130;5.028;2023-09-12T01:27:55;101380.13;;;27.71;50.36
30302;BME280;17111;52.130;5.028;2023-09-12T01:30:25;101379.47;;;27.69;50.12
30302;BME280;17111;52.130;5.028;2023-09-12T01:32:54;101372.34;;;27.68;50.02
30302;BME280;17111;52.130;5.028;2023-09-12T01:35:21;101378.00;;;27.67;50.45
30302;BME280;17111;52.130;5.028;2023-09-12T01:37:48;101381.75;;;27.66;50.36
30302;BME280;17111;52.130;5.028;2023-09-12T01:40:14;101378.41;;;27.64;50.24
30302;BME280;17111;52.130;5.028;2023-09-12T01:42:45;101382.19;;;27.63;50.24
30302;BME280;17111;52.130;5.028;2023-09-12T01:45:17;101377.75;;;27.62;50.65
30302;BME280;17111;52.130;5.028;2023-09-12T01:47:49;101379.66;;;27.61;50.32
30302;BME280;17111;52.130;5.028;2023-09-12T01:50:17;101377.13;;;27.60;50.12
30302;BME280;17111;52.130;5.028;2023-09-12T01:52:44;101385.31;;;27.60;49.89
30302;BME280;17111;52.130;5.028;2023-09-12T01:55:11;101388.25;;;27.58;49.80
30302;BME280;17111;52.130;5.028;2023-09-12T01:57:38;101392.81;;;27.58;49.89
30302;BME280;17111;52.130;5.028;2023-09-12T02:00:05;101386.75;;;27.55;50.74
30302;BME280;17111;52.130;5.028;2023-09-12T02:02:32;101395.97;;;27.54;50.22
30302;BME280;17111;52.130;5.028;2023-09-12T02:05:38;101385.09;;;27.54;49.93
30302;BME280;17111;52.130;5.028;2023-09-12T02:07:58;101383.38;;;27.53;50.60
30302;BME280;17111;52.130;5.028;2023-09-12T02:10:28;101380.88;;;27.52;50.22
30302;BME280;17111;52.130;5.028;2023-09-12T02:12:54;101369.16;;;27.51;50.05
30302;BME280;17111;52.130;5.028;2023-09-12T02:15:21;101377.31;;;27.51;50.28
30302;BME280;17111;52.130;5.028;2023-09-12T02:17:47;101381.09;;;27.50;50.31
30302;BME280;17111;52.130;5.028;2023-09-12T02:20:17;101392.00;;;27.50;50.42
30302;BME280;17111;52.130;5.028;2023-09-12T02:22:44;101390.28;;;27.49;50.61
30302;BME280;17111;52.130;5.028;2023-09-12T02:25:11;101391.34;;;27.48;50.81
30302;BME280;17111;52.130;5.028;2023-09-12T02:27:38;101389.44;;;27.49;50.32
30302;BME280;17111;52.130;5.028;2023-09-12T02:30:05;101389.66;;;27.47;50.28
30302;BME280;17111;52.130;5.028;2023-09-12T02:32:32;101388.00;;;27.46;50.10
30302;BME280;17111;52.130;5.028;2023-09-12T02:34:59;101382.72;;;27.45;50.42
30302;BME280;17111;52.130;5.028;2023-09-12T02:37:26;101387.34;;;27.44;50.49
30302;BME280;17111;52.130;5.028;2023-09-12T02:39:52;101376.66;;;27.43;50.13
30302;BME280;17111;52.130;5.028;2023-09-12T02:42:19;101385.03;;;27.41;50.46
30302;BME280;17111;52.130;5.028;2023-09-12T02:44:46;101381.47;;;27.41;50.06
30302;BME280;17111;52.130;5.028;2023-09-12T02:47:12;101377.91;;;27.40;50.55
30302;BME280;17111;52.130;5.028;2023-09-12T02:49:39;101378.13;;;27.39;50.65
30302;BME280;17111;52.130;5.028;2023-09-12T02:52:05;101386.28;;;27.39;50.79
30302;BME280;17111;52.130;5.028;2023-09-12T02:54:32;101378.31;;;27.37;50.59
30302;BME280;17111;52.130;5.028;2023-09-12T02:56:58;101368.47;;;27.36;50.19
30302;BME280;17111;52.130;5.028;2023-09-12T02:59:25;101372.03;;;27.37;50.20
30302;BME280;17111;52.130;5.028;2023-09-12T03:01:52;101376.63;;;27.36;50.11
30302;BME280;17111;52.130;5.028;2023-09-12T03:04:18;101377.69;;;27.35;50.57
30302;BME280;17111;52.130;5.028;2023-09-12T03:06:45;101374.97;;;27.35;50.25
30302;BME280;17111;52.130;5.028;2023-09-12T03:09:13;101377.88;;;27.34;50.72
30302;BME280;17111;52.130;5.028;2023-09-12T03:11:40;101379.75;;;27.33;50.56
30302;BME280;17111;52.130;5.028;2023-09-12T03:14:06;101378.06;;;27.32;50.11
30302;BME280;17111;52.130;5.028;2023-09-12T03:16:33;101373.69;;;27.31;50.92
30302;BME280;17111;52.130;5.028;2023-09-12T03:19:00;101370.13;;;27.30;50.39
30302;BME280;17111;52.130;5.028;2023-09-12T03:21:28;101362.97;;;27.29;50.22
30302;BME280;17111;52.130;5.028;2023-09-12T03:23:55;101362.13;;;27.29;50.70
30302;BME280;17111;52.130;5.028;2023-09-12T03:26:22;101361.13;;;27.30;50.29
30302;BME280;17111;52.130;5.028;2023-09-12T03:28:51;101358.59;;;27.28;50.41
30302;BME280;17111;52.130;5.028;2023-09-12T03:31:18;101366.75;;;27.28;50.31
30302;BME280;17111;52.130;5.028;2023-09-12T03:33:45;101359.63;;;27.27;50.77
30302;BME280;17111;52.130;5.028;2023-09-12T03:36:16;101362.34;;;27.27;50.78
30302;BME280;17111;52.130;5.028;2023-09-12T03:38:44;101363.41;;;27.26;50.93
30302;BME280;17111;52.130;5.028;2023-09-12T03:41:10;101369.69;;;27.27;50.88
30302;BME280;17111;52.130;5.028;2023-09-12T03:43:39;101368.00;;;27.26;50.51
30302;BME280;17111;52.130;5.028;2023-09-12T03:46:06;101377.19;;;27.25;50.57
30302;BME280;17111;52.130;5.028;2023-09-12T03:48:33;101370.91;;;27.24;50.53
30302;BME280;17111;52.130;5.028;2023-09-12T03:51:03;101373.66;;;27.24;50.48
30302;BME280;17111;52.130;5.028;2023-09-12T03:53:30;101372.81;;;27.24;50.75
30302;BME280;17111;52.130;5.028;2023-09-12T03:55:57;101374.69;;;27.23;50.76
30302;BME280;17111;52.130;5.028;2023-09-12T03:58:24;101386.63;;;27.22;50.85
30302;BME280;17111;52.130;5.028;2023-09-12T04:00:51;101377.63;;;27.22;50.64
30302;BME280;17111;52.130;5.028;2023-09-12T04:03:17;101374.91;;;27.22;50.86
30302;BME280;17111;52.130;5.028;2023-09-12T04:05:46;101369.66;;;27.20;50.81
30302;BME280;17111;52.130;5.028;2023-09-12T04:08:13;101371.53;;;27.20;50.89
30302;BME280;17111;52.130;5.028;2023-09-12T04:10:40;101367.97;;;27.19;50.96
30302;BME280;17111;52.130;5.028;2023-09-12T04:13:07;101367.13;;;27.19;50.79
30302;BME280;17111;52.130;5.028;2023-09-12T04:15:33;101359.81;;;27.19;50.23
30302;BME280;17111;52.130;5.028;2023-09-12T04:18:00;101352.69;;;27.18;51.01
30302;BME280;17111;52.130;5.028;2023-09-12T04:20:27;101352.88;;;27.17;50.37
30302;BME280;17111;52.130;5.028;2023-09-12T04:22:54;101353.72;;;27.17;50.87
30302;BME280;17111;52.130;5.028;2023-09-12T04:25:20;101359.16;;;27.17;50.87
30302;BME280;17111;52.130;5.028;2023-09-12T04:27:47;101358.31;;;27.17;50.40
30302;BME280;17111;52.130;5.028;2023-09-12T04:30:14;101359.38;;;27.16;50.34
30302;BME280;17111;52.130;5.028;2023-09-12T04:32:40;101353.09;;;27.15;50.50
30302;BME280;17111;52.130;5.028;2023-09-12T04:35:07;101353.09;;;27.15;50.69
30302;BME280;17111;52.130;5.028;2023-09-12T04:37:35;101352.25;;;27.15;50.59
30302;BME280;17111;52.130;5.028;2023-09-12T04:40:01;101347.00;;;27.13;50.29
30302;BME280;17111;52.130;5.028;2023-09-12T04:42:28;101350.59;;;27.14;50.40
30302;BME280;17111;52.130;5.028;2023-09-12T04:44:54;101349.53;;;27.15;50.64
30302;BME280;17111;52.130;5.028;2023-09-12T04:47:21;101350.59;;;27.14;50.58
30302;BME280;17111;52.130;5.028;2023-09-12T04:49:48;101353.50;;;27.12;50.65
30302;BME280;17111;52.130;5.028;2023-09-12T04:52:15;101354.31;;;27.13;50.64
30302;BME280;17111;52.130;5.028;2023-09-12T04:54:41;101355.38;;;27.12;50.78
30302;BME280;17111;52.130;5.028;2023-09-12T04:57:08;101347.22;;;27.12;50.50
30302;BME280;17111;52.130;5.028;2023-09-12T04:59:35;101352.66;;;27.12;50.49
30302;BME280;17111;52.130;5.028;2023-09-12T05:02:01;101352.88;;;27.10;50.85
30302;BME280;17111;52.130;5.028;2023-09-12T05:04:29;101342.97;;;27.09;50.80
30302;BME280;17111;52.130;5.028;2023-09-12T05:06:55;101350.28;;;27.08;50.59
30302;BME280;17111;52.130;5.028;2023-09-12T05:09:22;101348.63;;;27.07;50.35
30302;BME280;17111;52.130;5.028;2023-09-12T05:11:48;101358.66;;;27.07;50.52
30302;BME280;17111;52.130;5.028;2023-09-12T05:14:15;101358.66;;;27.07;50.63
30302;BME280;17111;52.130;5.028;2023-09-12T05:16:42;101354.28;;;27.06;50.46
30302;BME280;17111;52.130;5.028;2023-09-12T05:19:08;101353.41;;;27.05;50.54
30302;BME280;17111;52.130;5.028;2023-09-12T05:21:35;101347.13;;;27.05;50.80
30302;BME280;17111;52.130;5.028;2023-09-12T05:24:02;101344.63;;;27.03;50.25
30302;BME280;17111;52.130;5.028;2023-09-12T05:26:28;101351.75;;;27.04;51.05
30302;BME280;17111;52.130;5.028;2023-09-12T05:28:55;101348.41;;;27.02;50.59
30302;BME280;17111;52.130;5.028;2023-09-12T05:31:21;101348.41;;;27.02;50.61
30302;BME280;17111;52.130;5.028;2023-09-12T05:33:48;101357.56;;;27.01;50.62
30302;BME280;17111;52.130;5.028;2023-09-12T05:36:15;101359.47;;;27.01;50.83
30302;BME280;17111;52.130;5.028;2023-09-12T05:38:42;101368.47;;;27.01;50.95
30302;BME280;17111;52.130;5.028;2023-09-12T05:41:09;101373.06;;;27.01;50.98
30302;BME280;17111;52.130;5.028;2023-09-12T05:43:35;101376.84;;;27.00;50.36
30302;BME280;17111;52.130;5.028;2023-09-12T05:46:02;101377.66;;;27.00;50.98
30302;BME280;17111;52.130;5.028;2023-09-12T05:48:29;101385.00;;;27.00;50.48
30302;BME280;17111;52.130;5.028;2023-09-12T05:50:55;101386.03;;;26.99;50.80
30302;BME280;17111;52.130;5.028;2023-09-12T05:53:22;101381.44;;;26.99;50.75
30302;BME280;17111;52.130;5.028;2023-09-12T05:55:48;101386.03;;;26.99;50.83
30302;BME280;17111;52.130;5.028;2023-09-12T05:58:15;101385.22;;;26.98;50.62
30302;BME280;17111;52.130;5.028;2023-09-12T06:00:42;101376.22;;;26.98;50.67
30302;BME280;17111;52.130;5.028;2023-09-12T06:03:08;101373.28;;;26.99;50.58
30302;BME280;17111;52.130;5.028;2023-09-12T06:05:35;101368.88;;;26.98;50.53
30302;BME280;17111;52.130;5.028;2023-09-12T06:08:02;101374.13;;;27.00;50.54
30302;BME280;17111;52.130;5.028;2023-09-12T06:10:30;101376.00;;;26.99;50.83
30302;BME280;17111;52.130;5.028;2023-09-12T06:12:57;101378.72;;;26.99;50.59
30302;BME280;17111;52.130;5.028;2023-09-12T06:15:23;101383.13;;;27.00;50.78
30302;BME280;17111;52.130;5.028;2023-09-12T06:17:50;101381.44;;;26.99;50.61
30302;BME280;17111;52.130;5.028;2023-09-12T06:20:16;101376.63;;;27.01;51.02
30302;BME280;17111;52.130;5.028;2023-09-12T06:22:43;101378.50;;;27.01;50.80
30302;BME280;17111;52.130;5.028;2023-09-12T06:25:10;101377.66;;;27.00;51.15
30302;BME280;17111;52.130;5.028;2023-09-12T06:27:36;101387.50;;;27.01;50.61
30302;BME280;17111;52.130;5.028;2023-09-12T06:30:03;101389.22;;;27.02;50.82
30302;BME280;17111;52.130;5.028;2023-09-12T06:32:30;101388.16;;;27.03;50.88
30302;BME280;17111;52.130;5.028;2023-09-12T06:34:56;101392.75;;;27.03;50.99
30302;BME280;17111;52.130;5.028;2023-09-12T06:37:23;101396.31;;;27.03;51.18
30302;BME280;17111;52.130;5.028;2023-09-12T06:39:50;101395.47;;;27.03;51.13
30302;BME280;17111;52.130;5.028;2023-09-12T06:42:17;101404.47;;;27.03;51.07
30302;BME280;17111;52.130;5.028;2023-09-12T06:44:44;101396.53;;;27.02;50.59
30302;BME280;17111;52.130;5.028;2023-09-12T06:47:10;101404.47;;;27.03;51.07
30302;BME280;17111;52.130;5.028;2023-09-12T06:49:37;101403.66;;;27.03;50.91
30302;BME280;17111;52.130;5.028;2023-09-12T06:52:04;101404.69;;;27.02;50.70
30302;BME280;17111;52.130;5.028;2023-09-12T06:54:32;101392.94;;;27.01;50.42
30302;BME280;17111;52.130;5.028;2023-09-12T06:56:59;101407.41;;;27.02;51.08
30302;BME280;17111;52.130;5.028;2023-09-12T06:59:26;101405.72;;;27.01;50.58
30302;BME280;17111;52.130;5.028;2023-09-12T07:01:52;101406.56;;;27.01;50.53
30302;BME280;17111;52.130;5.028;2023-09-12T07:04:19;101405.53;;;27.02;51.13
30302;BME280;17111;52.130;5.028;2023-09-12T07:06:46;101398.38;;;27.01;50.89
30302;BME280;17111;52.130;5.028;2023-09-12T07:09:12;101394.84;;;27.01;50.97
30302;BME280;17111;52.130;5.028;2023-09-12T07:11:41;101395.66;;;27.01;50.77
30302;BME280;17111;52.130;5.028;2023-09-12T07:14:09;101382.06;;;27.01;50.66
30302;BME280;17111;52.130;5.028;2023-09-12T07:16:36;101395.47;;;27.03;50.96
30302;BME280;17111;52.130;5.028;2023-09-12T07:19:03;101388.16;;;27.03;50.63
30302;BME280;17111;52.130;5.028;2023-09-12T07:21:31;101392.56;;;27.04;51.23
30302;BME280;17111;52.130;5.028;2023-09-12T07:23:58;101392.38;;;27.06;51.02
30302;BME280;17111;52.130;5.028;2023-09-12T07:26:25;101392.16;;;27.07;51.17
30302;BME280;17111;52.130;5.028;2023-09-12T07:28:54;101393.00;;;27.08;51.22
30302;BME280;17111;52.130;5.028;2023-09-12T07:31:20;101393.84;;;27.08;50.83
30302;BME280;17111;52.130;5.028;2023-09-12T07:33:47;101393.84;;;27.08;51.17
30302;BME280;17111;52.130;5.028;2023-09-12T07:36:14;101397.38;;;27.09;51.11
30302;BME280;17111;52.130;5.028;2023-09-12T07:38:40;101402.84;;;27.09;51.29
30302;BME280;17111;52.130;5.028;2023-09-12T07:41:09;101406.25;;;27.11;50.88
30302;BME280;17111;52.130;5.028;2023-09-12T07:43:35;101407.91;;;27.12;51.12
30302;BME280;17111;52.130;5.028;2023-09-12T07:46:02;101401.41;;;27.13;50.67
30302;BME280;17111;52.130;5.028;2023-09-12T07:48:29;101405.84;;;27.14;50.86
30302;BME280;17111;52.130;5.028;2023-09-12T07:50:56;101402.06;;;27.15;50.71
30302;BME280;17111;52.130;5.028;2023-09-12T07:53:23;101407.53;;;27.15;51.04
30302;BME280;17111;52.130;5.028;2023-09-12T07:55:49;101409.41;;;27.15;50.79
30302;BME280;17111;52.130;5.028;2023-09-12T07:58:18;101411.91;;;27.16;50.99
30302;BME280;17111;52.130;5.028;2023-09-12T08:00:48;101411.72;;;27.18;50.80
30302;BME280;17111;52.130;5.028;2023-09-12T08:03:15;101424.47;;;27.17;51.01
30302;BME280;17111;52.130;5.028;2023-09-12T08:05:42;101424.47;;;27.17;50.92
30302;BME280;17111;52.130;5.028;2023-09-12T08:08:09;101421.56;;;27.19;50.48
30302;BME280;17111;52.130;5.028;2023-09-12T08:10:36;101429.72;;;27.19;50.64
30302;BME280;17111;52.130;5.028;2023-09-12T08:13:03;101430.56;;;27.19;50.89
30302;BME280;17111;52.130;5.028;2023-09-12T08:15:29;101428.69;;;27.20;50.84
30302;BME280;17111;52.130;5.028;2023-09-12T08:17:56;101428.47;;;27.21;50.55
30302;BME280;17111;52.130;5.028;2023-09-12T08:20:22;101435.81;;;27.21;50.82
30302;BME280;17111;52.130;5.028;2023-09-12T08:22:49;101437.50;;;27.22;50.53
30302;BME280;17111;52.130;5.028;2023-09-12T08:25:16;101441.25;;;27.21;51.04
30302;BME280;17111;52.130;5.028;2023-09-12T08:27:43;101436.47;;;27.23;50.84
30302;BME280;17111;52.130;5.028;2023-09-12T08:30:12;101438.34;;;27.22;51.06
30302;BME280;17111;52.130;5.028;2023-09-12T08:32:40;101434.56;;;27.23;50.87
30302;BME280;17111;52.130;5.028;2023-09-12T08:35:11;101441.69;;;27.24;50.76
30302;BME280;17111;52.130;5.028;2023-09-12T08:37:41;101438.78;;;27.26;50.57
30302;BME280;17111;52.130;5.028;2023-09-12T08:40:09;101437.72;;;27.27;50.88
30302;BME280;17111;52.130;5.028;2023-09-12T08:42:42;101442.97;;;27.28;50.64
30302;BME280;17111;52.130;5.028;2023-09-12T08:45:12;101439.41;;;27.28;50.54
30302;BME280;17111;52.130;5.028;2023-09-12T08:47:41;101443.81;;;27.29;50.47
30302;BME280;17111;52.130;5.028;2023-09-12T08:50:13;101448.22;;;27.30;50.73
30302;BME280;17111;52.130;5.028;2023-09-12T08:52:41;101447.19;;;27.31;50.63
30302;BME280;17111;52.130;5.028;2023-09-12T08:55:34;101450.75;;;27.31;51.07
30302;BME280;17111;52.130;5.028;2023-09-12T08:58:04;101452.41;;;27.33;51.19
30302;BME280;17111;52.130;5.028;2023-09-12T09:00:31;101441.97;;;27.36;50.57
30302;BME280;17111;52.130;5.028;2023-09-12T09:02:59;101448.47;;;27.35;50.35
30302;BME280;17111;52.130;5.028;2023-09-12T09:05:27;101439.25;;;27.36;50.48
30302;BME280;17111;52.130;5.028;2023-09-12T09:07:54;101436.53;;;27.36;50.75
30302;BME280;17111;52.130;5.028;2023-09-12T09:10:22;101441.97;;;27.36;50.64
30302;BME280;17111;52.130;5.028;2023-09-12T09:13:09;101451.63;;;27.39;50.50
30302;BME280;17111;52.130;5.028;2023-09-12T09:15:37;101444.28;;;27.39;50.37
30302;BME280;17111;52.130;5.028;2023-09-12T09:18:09;101432.34;;;27.40;50.48
30302;BME280;17111;52.130;5.028;2023-09-12T09:20:38;101440.97;;;27.44;50.54
30302;BME280;17111;52.130;5.028;2023-09-12T09:23:07;101444.34;;;27.46;50.89
30302;BME280;17111;52.130;5.028;2023-09-12T09:25:36;101447.25;;;27.44;51.32
30302;BME280;17111;52.130;5.028;2023-09-12T09:28:16;101448.06;;;27.38;52.42
30302;BME280;17111;52.130;5.028;2023-09-12T09:30:45;101443.63;;;27.37;52.23
30302;BME280;17111;52.130;5.028;2023-09-12T09:33:12;101450.13;;;27.36;52.25
30302;BME280;17111;52.130;5.028;2023-09-12T09:35:45;101451.19;;;27.35;52.95
30302;BME280;17111;52.130;5.028;2023-09-12T09:38:12;101450.34;;;27.35;52.59
30302;BME280;17111;52.130;5.028;2023-09-12T09:40:43;101450.13;;;27.36;52.54
30302;BME280;17111;52.130;5.028;2023-09-12T09:43:11;101453.69;;;27.37;53.24
30302;BME280;17111;52.130;5.028;2023-09-12T09:45:45;101449.91;;;27.38;52.97
30302;BME280;17111;52.130;5.028;2023-09-12T09:48:20;101446.34;;;27.37;53.35
30302;BME280;17111;52.130;5.028;2023-09-12T09:50:48;101440.72;;;27.39;52.18
30302;BME280;17111;52.130;5.028;2023-09-12T09:53:16;101447.84;;;27.40;52.75
30302;BME280;17111;52.130;5.028;2023-09-12T09:55:43;101442.00;;;27.43;52.62
30302;BME280;17111;52.130;5.028;2023-09-12T09:58:14;101457.28;;;27.44;53.15
30302;BME280;17111;52.130;5.028;2023-09-12T10:00:43;101450.81;;;27.45;52.82
30302;BME280;17111;52.130;5.028;2023-09-12T10:03:12;101450.81;;;27.45;52.45
30302;BME280;17111;52.130;5.028;2023-09-12T10:05:40;101462.13;;;27.48;52.74
30302;BME280;17111;52.130;5.028;2023-09-12T10:08:07;101451.06;;;27.50;52.57
30302;BME280;17111;52.130;5.028;2023-09-12T10:10:38;101460.06;;;27.50;52.75
30302;BME280;17111;52.130;5.028;2023-09-12T10:13:05;101455.44;;;27.51;53.12
30302;BME280;17111;52.130;5.028;2023-09-12T10:15:35;101470.13;;;27.50;52.47
30302;BME280;17111;52.130;5.028;2023-09-12T10:18:08;101460.47;;;27.47;52.81
30302;BME280;17111;52.130;5.028;2023-09-12T10:20:52;101454.38;;;27.45;52.86
30302;BME280;17111;52.130;5.028;2023-09-12T10:23:43;101460.84;;;27.44;53.42
30302;BME280;17111;52.130;5.028;2023-09-12T10:26:12;101456.47;;;27.43;53.45
30302;BME280;17111;52.130;5.028;2023-09-12T10:28:43;101455.41;;;27.44;53.46
30302;BME280;17111;52.130;5.028;2023-09-12T10:31:12;101458.13;;;27.44;52.74
30302;BME280;17111;52.130;5.028;2023-09-12T10:33:39;101457.50;;;27.42;52.85
30302;BME280;17111;52.130;5.028;2023-09-12T10:36:08;101462.97;;;27.42;53.62
30302;BME280;17111;52.130;5.028;2023-09-12T10:38:43;101454.97;;;27.41;53.27
30302;BME280;17111;52.130;5.028;2023-09-12T10:41:14;101452.47;;;27.39;52.76
30302;BME280;17111;52.130;5.028;2023-09-12T10:43:43;101451.19;;;27.42;53.08
30302;BME280;17111;52.130;5.028;2023-09-12T10:46:13;101450.81;;;27.45;53.10
30302;BME280;17111;52.130;5.028;2023-09-12T10:48:39;101461.28;;;27.48;52.49
30302;BME280;17111;52.130;5.028;2023-09-12T10:51:08;101455.63;;;27.49;52.54
30302;BME280;17111;52.130;5.028;2023-09-12T10:53:36;101455.44;;;27.51;52.46
30302;BME280;17111;52.130;5.028;2023-09-12T10:56:23;101451.69;;;27.52;52.62
30302;BME280;17111;52.130;5.028;2023-09-12T11:01:34;101445.00;;;27.54;52.53
30302;BME280;17111;52.130;5.028;2023-09-12T11:06:46;101440.41;;;27.55;53.06
30302;BME280;17111;52.130;5.028;2023-09-12T11:11:45;101425.09;;;27.54;52.89
30302;BME280;17111;52.130;5.028;2023-09-12T11:14:15;101421.50;;;27.53;52.79
30302;BME280;17111;52.130;5.028;2023-09-12T11:22:29;101434.09;;;27.54;52.60
30302;BME280;17111;52.130;5.028;2023-09-12T11:25:02;101434.09;;;27.54;52.77
30302;BME280;17111;52.130;5.028;2023-09-12T11:27:44;101420.69;;;27.53;51.76
30302;BME280;17111;52.130;5.028;2023-09-12T11:30:12;101423.00;;;27.56;51.94
30302;BME280;17111;52.130;5.028;2023-09-12T11:32:39;101420.06;;;27.58;52.96
30302;BME280;17111;52.130;5.028;2023-09-12T11:35:07;101411.91;;;27.58;52.78
30302;BME280;17111;52.130;5.028;2023-09-12T11:37:34;101423.84;;;27.56;52.90
30302;BME280;17111;52.130;5.028;2023-09-12T11:42:39;101426.78;;;27.55;52.72
30302;BME280;17111;52.130;5.028;2023-09-12T11:45:10;101423.41;;;27.53;51.99
30302;BME280;17111;52.130;5.028;2023-09-12T11:47:41;101417.13;;;27.52;51.90
30302;BME280;17111;52.130;5.028;2023-09-12T11:50:09;101416.28;;;27.52;52.14
30302;BME280;17111;52.130;5.028;2023-09-12T11:53:05;101417.34;;;27.51;51.56
30302;BME280;17111;52.130;5.028;2023-09-12T11:55:45;101422.78;;;27.51;51.78
30302;BME280;17111;52.130;5.028;2023-09-12T11:58:16;101425.50;;;27.51;51.62
30302;BME280;17111;52.130;5.028;2023-09-12T12:00:50;101433.03;;;27.49;51.21
30302;BME280;17111;52.130;5.028;2023-09-12T12:03:20;101434.91;;;27.48;51.79
30302;BME280;17111;52.130;5.028;2023-09-12T12:05:47;101433.22;;;27.47;52.05
30302;BME280;17111;52.130;5.028;2023-09-12T12:08:16;101431.56;;;27.46;51.93
30302;BME280;17111;52.130;5.028;2023-09-12T12:10:50;101432.56;;;27.45;51.55
30302;BME280;17111;52.130;5.028;2023-09-12T12:13:20;101428.41;;;27.43;51.78
30302;BME280;17111;52.130;5.028;2023-09-12T12:15:47;101439.06;;;27.44;51.16
30302;BME280;17111;52.130;5.028;2023-09-12T12:18:14;101433.84;;;27.43;52.10
30302;BME280;17111;52.130;5.028;2023-09-12T12:20:41;101426.69;;;27.42;51.88
30302;BME280;17111;52.130;5.028;2023-09-12T12:23:08;101427.56;;;27.42;51.85
30302;BME280;17111;52.130;5.028;2023-09-12T12:25:35;101423.97;;;27.42;51.13
30302;BME280;17111;52.130;5.028;2023-09-12T12:28:03;101425.84;;;27.41;51.29
30302;BME280;17111;52.130;5.028;2023-09-12T12:30:31;101428.78;;;27.40;51.28
30302;BME280;17111;52.130;5.028;2023-09-12T12:33:01;101435.47;;;27.37;51.35
30302;BME280;17111;52.130;5.028;2023-09-12T12:35:48;101433.78;;;27.36;50.62
30302;BME280;17111;52.130;5.028;2023-09-12T12:38:19;101428.13;;;27.31;51.00
30302;BME280;17111;52.130;5.028;2023-09-12T12:40:46;101432.91;;;27.29;51.17
30302;BME280;17111;52.130;5.028;2023-09-12T12:43:19;101445.69;;;27.28;52.14
30302;BME280;17111;52.130;5.028;2023-09-12T12:45:54;101456.56;;;27.28;52.71
30302;BME280;17111;52.130;5.028;2023-09-12T12:48:34;101466.41;;;27.29;52.08
30302;BME280;17111;52.130;5.028;2023-09-12T12:51:19;101453.69;;;27.30;52.33
30302;BME280;17111;52.130;5.028;2023-09-12T12:53:54;101453.84;;;27.28;52.64
30302;BME280;17111;52.130;5.028;2023-09-12T12:56:27;101453.69;;;27.30;51.99
30302;BME280;17111;52.130;5.028;2023-09-12T12:58:58;101449.06;;;27.30;52.59
30302;BME280;17111;52.130;5.028;2023-09-12T13:01:26;101446.97;;;27.33;52.63
30302;BME280;17111;52.130;5.028;2023-09-12T13:03:53;101436.91;;;27.33;51.80
30302;BME280;17111;52.130;5.028;2023-09-12T13:06:22;101436.53;;;27.36;52.64
30302;BME280;17111;52.130;5.028;2023-09-12T13:08:49;101425.22;;;27.39;52.47
30302;BME280;17111;52.130;5.028;2023-09-12T13:11:16;101419.56;;;27.41;51.98
30302;BME280;17111;52.130;5.028;2023-09-12T13:13:44;101405.56;;;27.44;52.32
30302;BME280;17111;52.130;5.028;2023-09-12T13:16:13;101408.50;;;27.49;52.34
30302;BME280;17111;52.130;5.028;2023-09-12T13:18:40;101401.19;;;27.49;52.20